sensor_id;sensor_type;location;lat;lon;timestamp;P1;durP1;ratioP1;P2;durP2;ratioP2
9997;SDS011;5038;53.064;8.624;2023-09-18T00:00:04;19.60;;;17.73;;
9997;SDS011;5038;53.064;8.624;2023-09-18T00:02:37;16.67;;;15.17;;
9997;SDS011;5038;53.064;8.624;2023-09-18T00:05:06;17.53;;;16.10;;
9997;SDS011;5038;53.064;8.624;2023-09-18T00:07:34;18.13;;;15.57;;
9997;SDS011;5038;53.064;8.624;2023-09-18T00:10:03;16.40;;;15.10;;
9997;SDS011;5038;53.064;8.624;2023-09-18T00:12:31;16.80;;;15.40;;
9997;SDS011;5038;53.064;8.624;2023-09-18T00:15:01;16.77;;;15.37;;
9997;SDS011;5038;53.064;8.624;2023-09-18T00:17:30;17.93;;;16.43;;
9997;SDS011;5038;53.064;8.624;2023-09-18T00:19:58;16.93;;;15.53;;
9997;SDS011;5038;53.064;8.624;2023-09-18T00:22:26;17.60;;;16.10;;
9997;SDS011;5038;53.064;8.624;2023-09-18T00:24:54;16.27;;;14.87;;
9997;SDS011;5038;53.064;8.624;2023-09-18T00:27:23;17.80;;;16.17;;
9997;SDS011;5038;53.064;8.624;2023-09-18T00:29:51;14.17;;;13.03;;
9997;SDS011;5038;53.064;8.624;2023-09-18T00:32:20;16.13;;;14.63;;
9997;SDS011;5038;53.064;8.624;2023-09-18T00:34:48;14.97;;;13.73;;
9997;SDS011;5038;53.064;8.624;2023-09-18T00:37:17;16.23;;;14.83;;
9997;SDS011;5038;53.064;8.624;2023-09-18T00:39:45;19.13;;;15.87;;
9997;SDS011;5038;53.064;8.624;2023-09-18T00:42:13;15.13;;;13.73;;
9997;SDS011;5038;53.064;8.624;2023-09-18T00:44:44;15.70;;;14.30;;
9997;SDS011;5038;53.064;8.624;2023-09-18T00:47:12;14.80;;;13.50;;
9997;SDS011;5038;53.064;8.624;2023-09-18T00:49:44;14.53;;;13.27;;
9997;SDS011;5038;53.064;8.624;2023-09-18T00:52:16;15.80;;;14.47;;
9997;SDS011;5038;53.064;8.624;2023-09-18T00:54:45;16.53;;;14.77;;
9997;SDS011;5038;53.064;8.624;2023-09-18T00:57:15;15.57;;;14.27;;
9997;SDS011;5038;53.064;8.624;2023-09-18T00:59:44;15.23;;;13.83;;
9997;SDS011;5038;53.064;8.624;2023-09-18T01:02:13;15.10;;;13.60;;
9997;SDS011;5038;53.064;8.624;2023-09-18T01:04:42;14.87;;;13.43;;
9997;SDS011;5038;53.064;8.624;2023-09-18T01:07:11;13.67;;;12.37;;
9997;SDS011;5038;53.064;8.624;2023-09-18T01:09:39;14.90;;;13.40;;
9997;SDS011;5038;53.064;8.624;2023-09-18T01:12:11;14.93;;;13.63;;
9997;SDS011;5038;53.064;8.624;2023-09-18T01:14:48;13.57;;;12.47;;
9997;SDS011;5038;53.064;8.624;2023-09-18T01:17:24;13.70;;;12.50;;
9997;SDS011;5038;53.064;8.624;2023-09-18T01:19:55;13.60;;;12.40;;
9997;SDS011;5038;53.064;8.624;2023-09-18T01:22:23;13.80;;;12.40;;
9997;SDS011;5038;53.064;8.624;2023-09-18T01:24:53;14.73;;;13.30;;
9997;SDS011;5038;53.064;8.624;2023-09-18T01:27:21;14.50;;;13.30;;
9997;SDS011;5038;53.064;8.624;2023-09-18T01:29:50;13.37;;;12.17;;
9997;SDS011;5038;53.064;8.624;2023-09-18T01:32:19;13.73;;;12.43;;
9997;SDS011;5038;53.064;8.624;2023-09-18T01:34:51;14.57;;;13.30;;
9997;SDS011;5038;53.064;8.624;2023-09-18T01:37:23;14.47;;;13.17;;
9997;SDS011;5038;53.064;8.624;2023-09-18T01:39:54;14.03;;;12.83;;
9997;SDS011;5038;53.064;8.624;2023-09-18T01:42:27;15.03;;;13.70;;
9997;SDS011;5038;53.064;8.624;2023-09-18T01:44:56;13.57;;;12.30;;
9997;SDS011;5038;53.064;8.624;2023-09-18T01:47:24;13.77;;;12.47;;
9997;SDS011;5038;53.064;8.624;2023-09-18T01:49:55;15.10;;;13.63;;
9997;SDS011;5038;53.064;8.624;2023-09-18T01:52:24;13.33;;;12.20;;
9997;SDS011;5038;53.064;8.624;2023-09-18T01:54:53;14.70;;;13.40;;
9997;SDS011;5038;53.064;8.624;2023-09-18T01:57:21;14.63;;;13.33;;
9997;SDS011;5038;53.064;8.624;2023-09-18T01:59:49;13.03;;;11.83;;
9997;SDS011;5038;53.064;8.624;2023-09-18T02:02:18;13.90;;;12.63;;
9997;SDS011;5038;53.064;8.624;2023-09-18T02:05:06;14.77;;;13.37;;
9997;SDS011;5038;53.064;8.624;2023-09-18T02:07:36;14.60;;;13.33;;
9997;SDS011;5038;53.064;8.624;2023-09-18T02:10:06;14.47;;;13.13;;
9997;SDS011;5038;53.064;8.624;2023-09-18T02:12:35;13.07;;;11.87;;
9997;SDS011;5038;53.064;8.624;2023-09-18T02:15:03;12.90;;;11.80;;
9997;SDS011;5038;53.064;8.624;2023-09-18T02:17:33;14.10;;;12.70;;
9997;SDS011;5038;53.064;8.624;2023-09-18T02:20:02;12.83;;;11.63;;
9997;SDS011;5038;53.064;8.624;2023-09-18T02:22:38;13.67;;;12.47;;
9997;SDS011;5038;53.064;8.624;2023-09-18T02:25:08;14.17;;;12.87;;
9997;SDS011;5038;53.064;8.624;2023-09-18T02:27:36;13.87;;;12.60;;
9997;SDS011;5038;53.064;8.624;2023-09-18T02:30:05;14.40;;;13.10;;
9997;SDS011;5038;53.064;8.624;2023-09-18T02:32:35;14.87;;;13.67;;
9997;SDS011;5038;53.064;8.624;2023-09-18T02:35:04;14.20;;;12.90;;
9997;SDS011;5038;53.064;8.624;2023-09-18T02:37:34;14.33;;;13.03;;
9997;SDS011;5038;53.064;8.624;2023-09-18T02:40:02;13.70;;;12.60;;
9997;SDS011;5038;53.064;8.624;2023-09-18T02:42:33;13.43;;;12.33;;
9997;SDS011;5038;53.064;8.624;2023-09-18T02:45:01;13.30;;;12.10;;
9997;SDS011;5038;53.064;8.624;2023-09-18T02:47:29;14.90;;;13.60;;
9997;SDS011;5038;53.064;8.624;2023-09-18T02:49:57;14.67;;;13.27;;
9997;SDS011;5038;53.064;8.624;2023-09-18T02:52:25;14.20;;;12.90;;
9997;SDS011;5038;53.064;8.624;2023-09-18T02:54:54;14.03;;;12.83;;
9997;SDS011;5038;53.064;8.624;2023-09-18T02:57:22;14.33;;;13.10;;
9997;SDS011;5038;53.064;8.624;2023-09-18T02:59:52;14.50;;;13.10;;
9997;SDS011;5038;53.064;8.624;2023-09-18T03:02:20;13.17;;;12.03;;
9997;SDS011;5038;53.064;8.624;2023-09-18T03:04:48;15.33;;;14.00;;
9997;SDS011;5038;53.064;8.624;2023-09-18T03:07:16;12.67;;;11.47;;
9997;SDS011;5038;53.064;8.624;2023-09-18T03:09:44;14.20;;;12.90;;
9997;SDS011;5038;53.064;8.624;2023-09-18T03:12:13;15.10;;;13.63;;
9997;SDS011;5038;53.064;8.624;2023-09-18T03:14:41;13.97;;;12.77;;
9997;SDS011;5038;53.064;8.624;2023-09-18T03:17:11;13.80;;;12.60;;
9997;SDS011;5038;53.064;8.624;2023-09-18T03:19:40;14.43;;;13.03;;
9997;SDS011;5038;53.064;8.624;2023-09-18T03:22:10;17.40;;;15.80;;
9997;SDS011;5038;53.064;8.624;2023-09-18T03:24:38;14.20;;;13.00;;
9997;SDS011;5038;53.064;8.624;2023-09-18T03:27:06;16.00;;;14.43;;
9997;SDS011;5038;53.064;8.624;2023-09-18T03:29:35;18.17;;;15.43;;
9997;SDS011;5038;53.064;8.624;2023-09-18T03:32:04;14.37;;;13.07;;
9997;SDS011;5038;53.064;8.624;2023-09-18T03:34:33;15.27;;;13.90;;
9997;SDS011;5038;53.064;8.624;2023-09-18T03:37:02;13.87;;;12.77;;
9997;SDS011;5038;53.064;8.624;2023-09-18T03:39:30;13.43;;;12.33;;
9997;SDS011;5038;53.064;8.624;2023-09-18T03:41:58;13.67;;;12.37;;
9997;SDS011;5038;53.064;8.624;2023-09-18T03:44:26;13.40;;;12.20;;
9997;SDS011;5038;53.064;8.624;2023-09-18T03:46:55;14.30;;;12.87;;
9997;SDS011;5038;53.064;8.624;2023-09-18T03:49:23;13.60;;;12.50;;
9997;SDS011;5038;53.064;8.624;2023-09-18T03:51:52;14.20;;;12.90;;
9997;SDS011;5038;53.064;8.624;2023-09-18T03:54:21;12.43;;;11.40;;
9997;SDS011;5038;53.064;8.624;2023-09-18T03:56:49;13.67;;;12.57;;
9997;SDS011;5038;53.064;8.624;2023-09-18T03:59:17;11.97;;;11.07;;
9997;SDS011;5038;53.064;8.624;2023-09-18T04:01:45;13.17;;;11.97;;
9997;SDS011;5038;53.064;8.624;2023-09-18T04:04:13;12.60;;;11.50;;
9997;SDS011;5038;53.064;8.624;2023-09-18T04:06:42;11.57;;;10.43;;
9997;SDS011;5038;53.064;8.624;2023-09-18T04:09:13;13.33;;;12.13;;
9997;SDS011;5038;53.064;8.624;2023-09-18T04:11:41;12.30;;;11.30;;
9997;SDS011;5038;53.064;8.624;2023-09-18T04:14:09;12.80;;;11.60;;
9997;SDS011;5038;53.064;8.624;2023-09-18T04:16:38;13.07;;;11.97;;
9997;SDS011;5038;53.064;8.624;2023-09-18T04:19:08;13.40;;;12.30;;
9997;SDS011;5038;53.064;8.624;2023-09-18T04:21:38;13.10;;;11.90;;
9997;SDS011;5038;53.064;8.624;2023-09-18T04:24:06;13.67;;;12.40;;
9997;SDS011;5038;53.064;8.624;2023-09-18T04:26:36;12.83;;;11.40;;
9997;SDS011;5038;53.064;8.624;2023-09-18T04:29:04;13.13;;;12.00;;
9997;SDS011;5038;53.064;8.624;2023-09-18T04:31:32;13.13;;;11.93;;
9997;SDS011;5038;53.064;8.624;2023-09-18T04:34:01;12.30;;;11.20;;
9997;SDS011;5038;53.064;8.624;2023-09-18T04:36:29;12.70;;;11.60;;
9997;SDS011;5038;53.064;8.624;2023-09-18T04:38:59;12.37;;;11.37;;
9997;SDS011;5038;53.064;8.624;2023-09-18T04:41:27;11.43;;;10.40;;
9997;SDS011;5038;53.064;8.624;2023-09-18T04:43:57;13.33;;;11.87;;
9997;SDS011;5038;53.064;8.624;2023-09-18T04:46:26;12.20;;;11.10;;
9997;SDS011;5038;53.064;8.624;2023-09-18T04:48:56;12.93;;;11.83;;
9997;SDS011;5038;53.064;8.624;2023-09-18T04:51:24;14.07;;;12.80;;
9997;SDS011;5038;53.064;8.624;2023-09-18T04:53:52;13.17;;;11.77;;
9997;SDS011;5038;53.064;8.624;2023-09-18T04:56:21;13.63;;;12.47;;
9997;SDS011;5038;53.064;8.624;2023-09-18T04:58:49;12.73;;;11.50;;
9997;SDS011;5038;53.064;8.624;2023-09-18T05:01:19;12.70;;;11.07;;
9997;SDS011;5038;53.064;8.624;2023-09-18T05:03:48;13.03;;;11.90;;
9997;SDS011;5038;53.064;8.624;2023-09-18T05:06:16;13.23;;;12.10;;
9997;SDS011;5038;53.064;8.624;2023-09-18T05:08:45;11.50;;;10.50;;
9997;SDS011;5038;53.064;8.624;2023-09-18T05:11:13;11.63;;;10.67;;
9997;SDS011;5038;53.064;8.624;2023-09-18T05:13:43;9.40;;;8.60;;
9997;SDS011;5038;53.064;8.624;2023-09-18T05:16:11;12.67;;;11.43;;
9997;SDS011;5038;53.064;8.624;2023-09-18T05:18:41;11.73;;;10.67;;
9997;SDS011;5038;53.064;8.624;2023-09-18T05:21:09;11.00;;;10.00;;
9997;SDS011;5038;53.064;8.624;2023-09-18T05:23:37;12.33;;;11.23;;
9997;SDS011;5038;53.064;8.624;2023-09-18T05:26:05;11.30;;;10.30;;
9997;SDS011;5038;53.064;8.624;2023-09-18T05:28:33;12.07;;;10.97;;
9997;SDS011;5038;53.064;8.624;2023-09-18T05:31:02;11.80;;;10.80;;
9997;SDS011;5038;53.064;8.624;2023-09-18T05:33:30;12.70;;;11.63;;
9997;SDS011;5038;53.064;8.624;2023-09-18T05:35:59;14.00;;;12.80;;
9997;SDS011;5038;53.064;8.624;2023-09-18T05:38:27;11.67;;;10.70;;
9997;SDS011;5038;53.064;8.624;2023-09-18T05:40:56;12.40;;;11.17;;
9997;SDS011;5038;53.064;8.624;2023-09-18T05:43:24;12.20;;;11.03;;
9997;SDS011;5038;53.064;8.624;2023-09-18T05:45:52;11.93;;;10.73;;
9997;SDS011;5038;53.064;8.624;2023-09-18T05:48:20;10.87;;;9.77;;
9997;SDS011;5038;53.064;8.624;2023-09-18T05:50:49;12.70;;;9.50;;
9997;SDS011;5038;53.064;8.624;2023-09-18T05:53:20;14.50;;;12.70;;
9997;SDS011;5038;53.064;8.624;2023-09-18T05:55:48;12.93;;;11.60;;
9997;SDS011;5038;53.064;8.624;2023-09-18T05:58:17;12.10;;;11.00;;
9997;SDS011;5038;53.064;8.624;2023-09-18T06:00:48;11.93;;;10.77;;
9997;SDS011;5038;53.064;8.624;2023-09-18T06:03:16;13.03;;;11.87;;
9997;SDS011;5038;53.064;8.624;2023-09-18T06:05:47;10.60;;;9.70;;
9997;SDS011;5038;53.064;8.624;2023-09-18T06:08:15;11.13;;;10.03;;
9997;SDS011;5038;53.064;8.624;2023-09-18T06:10:46;10.27;;;9.40;;
9997;SDS011;5038;53.064;8.624;2023-09-18T06:13:14;11.37;;;10.37;;
9997;SDS011;5038;53.064;8.624;2023-09-18T06:15:42;10.20;;;9.20;;
9997;SDS011;5038;53.064;8.624;2023-09-18T06:18:10;10.03;;;9.13;;
9997;SDS011;5038;53.064;8.624;2023-09-18T06:20:40;10.80;;;9.90;;
9997;SDS011;5038;53.064;8.624;2023-09-18T06:23:11;11.17;;;10.10;;
9997;SDS011;5038;53.064;8.624;2023-09-18T06:25:39;10.77;;;9.70;;
9997;SDS011;5038;53.064;8.624;2023-09-18T06:28:09;11.03;;;9.67;;
9997;SDS011;5038;53.064;8.624;2023-09-18T06:30:37;13.13;;;11.93;;
9997;SDS011;5038;53.064;8.624;2023-09-18T06:33:05;11.80;;;10.70;;
9997;SDS011;5038;53.064;8.624;2023-09-18T06:35:34;10.57;;;9.60;;
9997;SDS011;5038;53.064;8.624;2023-09-18T06:38:03;11.73;;;10.70;;
9997;SDS011;5038;53.064;8.624;2023-09-18T06:40:33;10.40;;;9.47;;
9997;SDS011;5038;53.064;8.624;2023-09-18T06:43:01;11.10;;;9.60;;
9997;SDS011;5038;53.064;8.624;2023-09-18T06:45:31;10.40;;;9.50;;
9997;SDS011;5038;53.064;8.624;2023-09-18T06:47:59;10.30;;;9.40;;
9997;SDS011;5038;53.064;8.624;2023-09-18T06:50:28;10.47;;;9.57;;
9997;SDS011;5038;53.064;8.624;2023-09-18T06:52:56;10.80;;;9.70;;
9997;SDS011;5038;53.064;8.624;2023-09-18T06:55:25;13.70;;;12.40;;
9997;SDS011;5038;53.064;8.624;2023-09-18T06:57:53;16.73;;;14.90;;
9997;SDS011;5038;53.064;8.624;2023-09-18T07:00:21;11.70;;;10.57;;
9997;SDS011;5038;53.064;8.624;2023-09-18T07:02:50;12.73;;;10.33;;
9997;SDS011;5038;53.064;8.624;2023-09-18T07:05:19;11.60;;;10.53;;
9997;SDS011;5038;53.064;8.624;2023-09-18T07:07:47;11.17;;;10.23;;
9997;SDS011;5038;53.064;8.624;2023-09-18T07:10:15;11.33;;;10.33;;
9997;SDS011;5038;53.064;8.624;2023-09-18T07:12:43;11.23;;;10.17;;
9997;SDS011;5038;53.064;8.624;2023-09-18T07:15:12;11.73;;;10.73;;
9997;SDS011;5038;53.064;8.624;2023-09-18T07:17:40;11.57;;;10.47;;
9997;SDS011;5038;53.064;8.624;2023-09-18T07:20:10;10.10;;;9.20;;
9997;SDS011;5038;53.064;8.624;2023-09-18T07:22:45;14.17;;;11.90;;
9997;SDS011;5038;53.064;8.624;2023-09-18T07:25:14;13.70;;;12.03;;
9997;SDS011;5038;53.064;8.624;2023-09-18T07:27:43;11.97;;;10.87;;
9997;SDS011;5038;53.064;8.624;2023-09-18T07:30:11;16.07;;;13.20;;
9997;SDS011;5038;53.064;8.624;2023-09-18T07:32:42;12.87;;;10.43;;
9997;SDS011;5038;53.064;8.624;2023-09-18T07:35:12;11.83;;;10.73;;
9997;SDS011;5038;53.064;8.624;2023-09-18T07:37:41;11.40;;;10.20;;
9997;SDS011;5038;53.064;8.624;2023-09-18T07:40:11;12.57;;;11.37;;
9997;SDS011;5038;53.064;8.624;2023-09-18T07:42:39;11.00;;;10.00;;
9997;SDS011;5038;53.064;8.624;2023-09-18T07:45:10;10.83;;;9.83;;
9997;SDS011;5038;53.064;8.624;2023-09-18T07:47:38;11.47;;;10.53;;
9997;SDS011;5038;53.064;8.624;2023-09-18T07:50:07;11.80;;;10.60;;
9997;SDS011;5038;53.064;8.624;2023-09-18T07:52:37;11.10;;;10.10;;
9997;SDS011;5038;53.064;8.624;2023-09-18T07:55:05;11.00;;;9.87;;
9997;SDS011;5038;53.064;8.624;2023-09-18T07:57:34;9.40;;;8.50;;
9997;SDS011;5038;53.064;8.624;2023-09-18T08:00:04;10.40;;;8.80;;
9997;SDS011;5038;53.064;8.624;2023-09-18T08:02:38;9.30;;;8.50;;
9997;SDS011;5038;53.064;8.624;2023-09-18T08:05:07;9.30;;;8.40;;
9997;SDS011;5038;53.064;8.624;2023-09-18T08:07:37;11.53;;;10.20;;
9997;SDS011;5038;53.064;8.624;2023-09-18T08:10:07;10.47;;;8.60;;
9997;SDS011;5038;53.064;8.624;2023-09-18T08:12:36;9.87;;;8.90;;
9997;SDS011;5038;53.064;8.624;2023-09-18T08:15:04;10.63;;;8.10;;
9997;SDS011;5038;53.064;8.624;2023-09-18T08:17:33;8.30;;;7.43;;
9997;SDS011;5038;53.064;8.624;2023-09-18T08:20:01;8.77;;;6.50;;
9997;SDS011;5038;53.064;8.624;2023-09-18T08:22:37;8.30;;;7.47;;
9997;SDS011;5038;53.064;8.624;2023-09-18T08:25:06;8.73;;;7.53;;
9997;SDS011;5038;53.064;8.624;2023-09-18T08:27:37;7.60;;;6.80;;
9997;SDS011;5038;53.064;8.624;2023-09-18T08:30:08;7.93;;;7.10;;
9997;SDS011;5038;53.064;8.624;2023-09-18T08:32:37;7.97;;;7.17;;
9997;SDS011;5038;53.064;8.624;2023-09-18T08:35:06;10.70;;;8.10;;
9997;SDS011;5038;53.064;8.624;2023-09-18T08:37:35;7.90;;;6.70;;
9997;SDS011;5038;53.064;8.624;2023-09-18T08:40:05;7.53;;;6.80;;
9997;SDS011;5038;53.064;8.624;2023-09-18T08:42:38;9.20;;;7.40;;
9997;SDS011;5038;53.064;8.624;2023-09-18T08:45:09;6.97;;;6.03;;
9997;SDS011;5038;53.064;8.624;2023-09-18T08:47:38;8.27;;;7.13;;
9997;SDS011;5038;53.064;8.624;2023-09-18T08:50:08;8.83;;;6.23;;
9997;SDS011;5038;53.064;8.624;2023-09-18T08:52:37;8.83;;;6.17;;
9997;SDS011;5038;53.064;8.624;2023-09-18T08:55:08;7.30;;;5.60;;
9997;SDS011;5038;53.064;8.624;2023-09-18T08:57:36;7.97;;;7.10;;
9997;SDS011;5038;53.064;8.624;2023-09-18T09:00:07;8.73;;;6.43;;
9997;SDS011;5038;53.064;8.624;2023-09-18T09:02:38;7.10;;;6.30;;
9997;SDS011;5038;53.064;8.624;2023-09-18T09:05:06;10.53;;;6.10;;
9997;SDS011;5038;53.064;8.624;2023-09-18T09:07:34;7.30;;;6.60;;
9997;SDS011;5038;53.064;8.624;2023-09-18T09:10:02;6.37;;;5.40;;
9997;SDS011;5038;53.064;8.624;2023-09-18T09:12:52;6.97;;;6.10;;
9997;SDS011;5038;53.064;8.624;2023-09-18T09:15:21;6.40;;;5.80;;
9997;SDS011;5038;53.064;8.624;2023-09-18T09:17:51;8.70;;;5.37;;
9997;SDS011;5038;53.064;8.624;2023-09-18T09:20:20;6.87;;;6.23;;
9997;SDS011;5038;53.064;8.624;2023-09-18T09:22:48;7.20;;;5.90;;
9997;SDS011;5038;53.064;8.624;2023-09-18T09:25:23;5.93;;;4.90;;
9997;SDS011;5038;53.064;8.624;2023-09-18T09:27:54;6.57;;;5.10;;
9997;SDS011;5038;53.064;8.624;2023-09-18T09:30:23;7.13;;;5.00;;
9997;SDS011;5038;53.064;8.624;2023-09-18T09:32:54;8.63;;;5.53;;
9997;SDS011;5038;53.064;8.624;2023-09-18T09:35:23;10.47;;;6.07;;
9997;SDS011;5038;53.064;8.624;2023-09-18T09:37:56;7.30;;;5.13;;
9997;SDS011;5038;53.064;8.624;2023-09-18T09:40:25;9.13;;;5.83;;
9997;SDS011;5038;53.064;8.624;2023-09-18T09:42:56;5.73;;;5.13;;
9997;SDS011;5038;53.064;8.624;2023-09-18T09:45:28;6.83;;;5.70;;
9997;SDS011;5038;53.064;8.624;2023-09-18T09:47:57;6.33;;;4.70;;
9997;SDS011;5038;53.064;8.624;2023-09-18T09:50:27;6.30;;;5.70;;
9997;SDS011;5038;53.064;8.624;2023-09-18T09:52:55;7.30;;;5.10;;
9997;SDS011;5038;53.064;8.624;2023-09-18T09:55:24;6.53;;;5.13;;
9997;SDS011;5038;53.064;8.624;2023-09-18T09:57:56;6.30;;;4.50;;
9997;SDS011;5038;53.064;8.624;2023-09-18T10:00:28;8.43;;;4.77;;
9997;SDS011;5038;53.064;8.624;2023-09-18T10:03:03;7.77;;;5.10;;
9997;SDS011;5038;53.064;8.624;2023-09-18T10:05:34;6.50;;;4.30;;
9997;SDS011;5038;53.064;8.624;2023-09-18T10:08:04;5.70;;;4.27;;
9997;SDS011;5038;53.064;8.624;2023-09-18T10:10:36;7.90;;;4.97;;
9997;SDS011;5038;53.064;8.624;2023-09-18T10:13:12;6.43;;;4.40;;
9997;SDS011;5038;53.064;8.624;2023-09-18T10:15:43;9.33;;;5.03;;
9997;SDS011;5038;53.064;8.624;2023-09-18T10:18:26;7.00;;;4.50;;
9997;SDS011;5038;53.064;8.624;2023-09-18T10:20:56;4.77;;;4.33;;
9997;SDS011;5038;53.064;8.624;2023-09-18T10:23:36;8.20;;;5.37;;
9997;SDS011;5038;53.064;8.624;2023-09-18T10:26:13;6.90;;;4.90;;
9997;SDS011;5038;53.064;8.624;2023-09-18T10:28:48;6.57;;;4.80;;
9997;SDS011;5038;53.064;8.624;2023-09-18T10:31:19;5.63;;;5.00;;
9997;SDS011;5038;53.064;8.624;2023-09-18T10:33:48;8.50;;;5.47;;
9997;SDS011;5038;53.064;8.624;2023-09-18T10:36:17;6.87;;;5.30;;
9997;SDS011;5038;53.064;8.624;2023-09-18T10:38:46;5.43;;;4.90;;
9997;SDS011;5038;53.064;8.624;2023-09-18T10:41:19;6.27;;;5.50;;
9997;SDS011;5038;53.064;8.624;2023-09-18T10:43:51;8.53;;;5.40;;
9997;SDS011;5038;53.064;8.624;2023-09-18T10:46:23;5.60;;;5.13;;
9997;SDS011;5038;53.064;8.624;2023-09-18T10:48:53;6.00;;;4.43;;
9997;SDS011;5038;53.064;8.624;2023-09-18T10:51:22;8.23;;;5.20;;
9997;SDS011;5038;53.064;8.624;2023-09-18T10:53:51;7.60;;;4.70;;
9997;SDS011;5038;53.064;8.624;2023-09-18T10:56:19;5.07;;;4.33;;
9997;SDS011;5038;53.064;8.624;2023-09-18T10:58:56;6.20;;;4.30;;
9997;SDS011;5038;53.064;8.624;2023-09-18T11:01:27;5.80;;;4.27;;
9997;SDS011;5038;53.064;8.624;2023-09-18T11:03:57;6.40;;;4.40;;
9997;SDS011;5038;53.064;8.624;2023-09-18T11:06:28;6.10;;;5.20;;
9997;SDS011;5038;53.064;8.624;2023-09-18T11:08:59;6.27;;;4.60;;
9997;SDS011;5038;53.064;8.624;2023-09-18T11:11:31;5.90;;;4.07;;
9997;SDS011;5038;53.064;8.624;2023-09-18T11:14:03;4.93;;;4.10;;
9997;SDS011;5038;53.064;8.624;2023-09-18T11:16:38;5.43;;;4.43;;
9997;SDS011;5038;53.064;8.624;2023-09-18T11:19:08;7.83;;;4.80;;
9997;SDS011;5038;53.064;8.624;2023-09-18T11:21:38;7.80;;;5.57;;
9997;SDS011;5038;53.064;8.624;2023-09-18T11:24:07;5.47;;;4.90;;
9997;SDS011;5038;53.064;8.624;2023-09-18T11:26:43;6.23;;;4.97;;
9997;SDS011;5038;53.064;8.624;2023-09-18T11:29:15;9.10;;;5.27;;
9997;SDS011;5038;53.064;8.624;2023-09-18T11:31:46;7.20;;;4.33;;
9997;SDS011;5038;53.064;8.624;2023-09-18T11:34:20;6.33;;;5.40;;
9997;SDS011;5038;53.064;8.624;2023-09-18T11:36:50;5.30;;;4.10;;
9997;SDS011;5038;53.064;8.624;2023-09-18T11:39:34;9.40;;;4.87;;
9997;SDS011;5038;53.064;8.624;2023-09-18T11:42:06;5.70;;;4.23;;
9997;SDS011;5038;53.064;8.624;2023-09-18T11:44:40;5.17;;;4.60;;
9997;SDS011;5038;53.064;8.624;2023-09-18T11:47:09;7.67;;;4.97;;
9997;SDS011;5038;53.064;8.624;2023-09-18T11:49:46;5.53;;;5.10;;
9997;SDS011;5038;53.064;8.624;2023-09-18T11:52:17;6.40;;;5.07;;
9997;SDS011;5038;53.064;8.624;2023-09-18T11:54:46;4.40;;;4.00;;
9997;SDS011;5038;53.064;8.624;2023-09-18T11:57:16;4.63;;;4.20;;
9997;SDS011;5038;53.064;8.624;2023-09-18T11:59:46;6.20;;;3.60;;
9997;SDS011;5038;53.064;8.624;2023-09-18T12:02:24;3.70;;;3.40;;
9997;SDS011;5038;53.064;8.624;2023-09-18T12:04:54;3.70;;;2.87;;
9997;SDS011;5038;53.064;8.624;2023-09-18T12:07:23;5.70;;;3.50;;
9997;SDS011;5038;53.064;8.624;2023-09-18T12:09:52;7.97;;;3.80;;
9997;SDS011;5038;53.064;8.624;2023-09-18T12:12:21;4.10;;;3.30;;
9997;SDS011;5038;53.064;8.624;2023-09-18T12:14:51;8.10;;;4.03;;
9997;SDS011;5038;53.064;8.624;2023-09-18T12:17:20;7.10;;;3.87;;
9997;SDS011;5038;53.064;8.624;2023-09-18T12:19:51;4.63;;;4.00;;
9997;SDS011;5038;53.064;8.624;2023-09-18T12:22:27;4.00;;;3.70;;
9997;SDS011;5038;53.064;8.624;2023-09-18T12:25:07;4.30;;;4.00;;
9997;SDS011;5038;53.064;8.624;2023-09-18T12:27:41;5.50;;;3.77;;
9997;SDS011;5038;53.064;8.624;2023-09-18T12:30:11;4.27;;;3.87;;
9997;SDS011;5038;53.064;8.624;2023-09-18T12:32:42;4.40;;;4.00;;
9997;SDS011;5038;53.064;8.624;2023-09-18T12:35:13;5.20;;;4.43;;
9997;SDS011;5038;53.064;8.624;2023-09-18T12:37:41;5.17;;;4.57;;
9997;SDS011;5038;53.064;8.624;2023-09-18T12:40:20;4.40;;;4.00;;
9997;SDS011;5038;53.064;8.624;2023-09-18T12:42:53;5.13;;;4.00;;
9997;SDS011;5038;53.064;8.624;2023-09-18T12:45:24;4.73;;;3.57;;
9997;SDS011;5038;53.064;8.624;2023-09-18T12:47:54;5.30;;;4.10;;
9997;SDS011;5038;53.064;8.624;2023-09-18T12:50:24;4.37;;;3.93;;
9997;SDS011;5038;53.064;8.624;2023-09-18T12:52:52;4.47;;;4.07;;
9997;SDS011;5038;53.064;8.624;2023-09-18T12:55:23;4.43;;;4.07;;
9997;SDS011;5038;53.064;8.624;2023-09-18T12:57:53;4.20;;;3.50;;
9997;SDS011;5038;53.064;8.624;2023-09-18T13:00:22;4.77;;;3.70;;
9997;SDS011;5038;53.064;8.624;2023-09-18T13:02:54;3.60;;;3.30;;
9997;SDS011;5038;53.064;8.624;2023-09-18T13:05:23;3.40;;;3.10;;
9997;SDS011;5038;53.064;8.624;2023-09-18T13:07:53;3.90;;;3.57;;
9997;SDS011;5038;53.064;8.624;2023-09-18T13:10:22;4.20;;;3.90;;
9997;SDS011;5038;53.064;8.624;2023-09-18T13:12:54;4.30;;;3.90;;
9997;SDS011;5038;53.064;8.624;2023-09-18T13:15:24;4.07;;;3.67;;
9997;SDS011;5038;53.064;8.624;2023-09-18T13:17:56;6.43;;;5.13;;
9997;SDS011;5038;53.064;8.624;2023-09-18T13:20:26;5.00;;;4.60;;
9997;SDS011;5038;53.064;8.624;2023-09-18T13:22:56;4.70;;;4.30;;
9997;SDS011;5038;53.064;8.624;2023-09-18T13:25:28;5.53;;;4.53;;
9997;SDS011;5038;53.064;8.624;2023-09-18T13:27:57;4.23;;;3.90;;
9997;SDS011;5038;53.064;8.624;2023-09-18T13:30:25;3.60;;;3.30;;
9997;SDS011;5038;53.064;8.624;2023-09-18T13:33:02;3.73;;;3.43;;
9997;SDS011;5038;53.064;8.624;2023-09-18T13:35:32;3.37;;;3.07;;
9997;SDS011;5038;53.064;8.624;2023-09-18T13:38:01;3.80;;;3.50;;
9997;SDS011;5038;53.064;8.624;2023-09-18T13:40:32;3.90;;;3.50;;
9997;SDS011;5038;53.064;8.624;2023-09-18T13:43:02;5.00;;;4.10;;
9997;SDS011;5038;53.064;8.624;2023-09-18T13:45:31;4.00;;;3.70;;
9997;SDS011;5038;53.064;8.624;2023-09-18T13:47:59;4.07;;;3.77;;
9997;SDS011;5038;53.064;8.624;2023-09-18T13:50:28;5.30;;;4.80;;
9997;SDS011;5038;53.064;8.624;2023-09-18T13:52:57;5.73;;;4.80;;
9997;SDS011;5038;53.064;8.624;2023-09-18T13:55:29;5.63;;;5.13;;
9997;SDS011;5038;53.064;8.624;2023-09-18T13:58:03;5.00;;;4.50;;
9997;SDS011;5038;53.064;8.624;2023-09-18T14:01:28;4.60;;;4.20;;
9997;SDS011;5038;53.064;8.624;2023-09-18T14:03:56;5.17;;;4.70;;
9997;SDS011;5038;53.064;8.624;2023-09-18T14:06:26;5.90;;;5.40;;
9997;SDS011;5038;53.064;8.624;2023-09-18T14:08:54;5.00;;;4.60;;
9997;SDS011;5038;53.064;8.624;2023-09-18T14:11:22;5.43;;;4.93;;
9997;SDS011;5038;53.064;8.624;2023-09-18T14:13:51;5.40;;;4.20;;
9997;SDS011;5038;53.064;8.624;2023-09-18T14:16:19;5.27;;;4.87;;
9997;SDS011;5038;53.064;8.624;2023-09-18T14:18:47;4.40;;;4.10;;
9997;SDS011;5038;53.064;8.624;2023-09-18T14:21:15;4.80;;;4.40;;
9997;SDS011;5038;53.064;8.624;2023-09-18T14:23:45;4.90;;;4.40;;
9997;SDS011;5038;53.064;8.624;2023-09-18T14:26:13;4.40;;;4.10;;
9997;SDS011;5038;53.064;8.624;2023-09-18T14:28:47;5.93;;;4.40;;
9997;SDS011;5038;53.064;8.624;2023-09-18T14:31:15;4.30;;;4.00;;
9997;SDS011;5038;53.064;8.624;2023-09-18T14:33:43;5.07;;;3.70;;
9997;SDS011;5038;53.064;8.624;2023-09-18T14:36:11;4.07;;;3.70;;
9997;SDS011;5038;53.064;8.624;2023-09-18T14:38:39;4.10;;;3.70;;
9997;SDS011;5038;53.064;8.624;2023-09-18T14:41:09;4.43;;;4.13;;
9997;SDS011;5038;53.064;8.624;2023-09-18T14:43:37;4.43;;;3.87;;
9997;SDS011;5038;53.064;8.624;2023-09-18T14:46:05;4.87;;;4.33;;
9997;SDS011;5038;53.064;8.624;2023-09-18T14:48:33;4.23;;;3.50;;
9997;SDS011;5038;53.064;8.624;2023-09-18T14:51:02;4.30;;;3.50;;
9997;SDS011;5038;53.064;8.624;2023-09-18T14:53:30;4.40;;;4.00;;
9997;SDS011;5038;53.064;8.624;2023-09-18T14:55:59;3.37;;;3.07;;
9997;SDS011;5038;53.064;8.624;2023-09-18T14:58:28;5.77;;;3.67;;
9997;SDS011;5038;53.064;8.624;2023-09-18T15:00:57;5.00;;;4.47;;
9997;SDS011;5038;53.064;8.624;2023-09-18T15:03:26;3.70;;;3.10;;
9997;SDS011;5038;53.064;8.624;2023-09-18T15:05:55;3.87;;;3.47;;
9997;SDS011;5038;53.064;8.624;2023-09-18T15:08:23;4.33;;;3.90;;
9997;SDS011;5038;53.064;8.624;2023-09-18T15:10:52;4.80;;;3.23;;
9997;SDS011;5038;53.064;8.624;2023-09-18T15:13:20;4.40;;;3.57;;
9997;SDS011;5038;53.064;8.624;2023-09-18T15:15:49;3.70;;;3.40;;